createdAt,value
2018-08-18T00:00:08.422Z,23.20
2018-08-18T00:02:38.506Z,23.55
2018-08-18T00:05:08.554Z,23.80
2018-08-18T00:07:37.043Z,23.32
2018-08-18T00:10:07.678Z,23.77
2018-08-18T00:12:36.191Z,23.35
2018-08-18T00:15:05.823Z,23.05
2018-08-18T00:17:34.375Z,23.62
2018-08-18T00:20:03.265Z,23.35
2018-08-18T00:22:31.682Z,23.05
2018-08-18T00:25:00.126Z,23.92
2018-08-18T00:27:28.616Z,22.95
2018-08-18T00:30:01.135Z,23.52
2018-08-18T00:32:29.970Z,23.45
2018-08-18T00:34:58.374Z,22.58
2018-08-18T00:37:26.870Z,23.40
2018-08-18T00:39:55.987Z,23.60
2018-08-18T00:42:24.837Z,22.93
2018-08-18T00:44:53.340Z,23.47
2018-08-18T00:47:21.764Z,23.00
2018-08-18T00:49:50.135Z,24.10
2018-08-18T00:52:18.540Z,22.65
2018-08-18T00:54:46.982Z,23.15
2018-08-18T00:57:28.888Z,22.75
2018-08-18T00:59:57.499Z,23.15
2018-08-18T01:02:26.594Z,23.73
2018-08-18T01:05:02.673Z,22.73
2018-08-18T01:07:32.035Z,22.85
2018-08-18T01:10:00.882Z,23.10
2018-08-18T01:12:29.527Z,23.00
2018-08-18T01:14:58.213Z,23.22
2018-08-18T01:17:26.827Z,22.10
2018-08-18T01:19:56.893Z,22.77
2018-08-18T01:22:25.354Z,23.12
2018-08-18T01:24:53.982Z,22.87
2018-08-18T01:27:22.762Z,23.62
2018-08-18T01:29:55.337Z,23.18
2018-08-18T01:32:23.783Z,22.67
2018-08-18T01:34:52.800Z,23.55
2018-08-18T01:37:21.595Z,23.20
2018-08-18T01:39:53.049Z,23.45
2018-08-18T01:42:21.756Z,23.18
2018-08-18T01:44:52.243Z,24.25
2018-08-18T01:47:20.680Z,24.45
2018-08-18T01:49:49.047Z,23.83
2018-08-18T01:52:23.450Z,24.18
2018-08-18T01:54:51.871Z,23.05
2018-08-18T01:57:21.415Z,23.15
2018-08-18T01:59:50.200Z,22.35
2018-08-18T02:02:21.952Z,23.50
2018-08-18T02:04:50.657Z,22.40
2018-08-18T02:07:25.731Z,23.52
2018-08-18T02:09:54.531Z,24.23
2018-08-18T02:12:23.253Z,23.77
2018-08-18T02:14:51.727Z,24.32
2018-08-18T02:17:26.156Z,23.55
2018-08-18T02:19:55.060Z,24.10
2018-08-18T02:22:24.187Z,22.95
2018-08-18T02:24:52.564Z,23.57
2018-08-18T02:27:21.102Z,23.42
2018-08-18T02:30:01.178Z,23.38
2018-08-18T02:32:34.650Z,24.10
2018-08-18T02:35:03.098Z,23.45
2018-08-18T02:37:31.744Z,23.25
2018-08-18T02:40:00.219Z,24.55
2018-08-18T02:42:28.536Z,24.95
2018-08-18T02:44:56.937Z,24.23
2018-08-18T02:47:25.333Z,22.95
2018-08-18T02:49:54.889Z,24.40
2018-08-18T02:52:28.290Z,23.60
2018-08-18T02:55:03.416Z,23.30
2018-08-18T02:57:34.995Z,25.02
2018-08-18T03:00:06.418Z,23.90
2018-08-18T03:02:34.970Z,24.63
2018-08-18T03:05:03.549Z,24.50
2018-08-18T03:07:35.042Z,25.00
2018-08-18T03:10:37.673Z,23.60
2018-08-18T03:13:06.050Z,23.47
2018-08-18T03:16:08.754Z,24.50
2018-08-18T03:18:54.662Z,24.57
2018-08-18T03:21:29.300Z,24.12
2018-08-18T03:24:11.088Z,24.70
2018-08-18T03:26:41.077Z,26.05
2018-08-18T03:29:09.832Z,24.15
2018-08-18T03:31:39.302Z,25.25
2018-08-18T03:34:08.594Z,25.08
2018-08-18T03:36:38.197Z,24.47
2018-08-18T03:39:12.249Z,23.07
2018-08-18T03:41:40.850Z,24.77
2018-08-18T03:44:09.215Z,25.30
2018-08-18T03:46:37.608Z,25.77
2018-08-18T03:49:06.119Z,26.17
2018-08-18T03:51:39.863Z,25.62
2018-08-18T03:54:08.407Z,25.90
2018-08-18T03:56:36.872Z,24.35
2018-08-18T03:59:05.366Z,24.25
2018-08-18T04:01:43.080Z,24.82
2018-08-18T04:04:12.690Z,25.25
2018-08-18T04:06:42.287Z,24.85
2018-08-18T04:09:13.783Z,25.55
2018-08-18T04:11:42.202Z,26.33
2018-08-18T04:14:10.643Z,25.23
2018-08-18T04:16:47.574Z,26.25
2018-08-18T04:19:17.847Z,24.57
2018-08-18T04:21:46.341Z,26.20
2018-08-18T04:24:15.158Z,26.57
2018-08-18T04:26:44.208Z,26.77
2018-08-18T04:29:12.564Z,25.52
2018-08-18T04:31:41.038Z,26.23
2018-08-18T04:34:09.428Z,27.45
2018-08-18T04:36:37.799Z,24.90
2018-08-18T04:39:11.691Z,26.97
2018-08-18T04:41:40.596Z,25.88
2018-08-18T04:44:09.084Z,25.77
2018-08-18T04:46:37.510Z,26.40
2018-08-18T04:49:06.435Z,25.70
2018-08-18T04:51:34.986Z,27.07
2018-08-18T04:54:03.785Z,26.45
2018-08-18T04:56:32.232Z,26.62
2018-08-18T04:59:00.665Z,24.43
2018-08-18T05:01:29.069Z,25.45
2018-08-18T05:04:13.635Z,26.02
2018-08-18T05:06:43.910Z,26.00
2018-08-18T05:09:13.840Z,26.52
2018-08-18T05:11:42.351Z,24.82
2018-08-18T05:14:10.655Z,26.60
2018-08-18T05:16:39.043Z,26.48
2018-08-18T05:19:07.699Z,27.00
2018-08-18T05:21:36.745Z,26.97
2018-08-18T05:24:21.055Z,25.95
2018-08-18T05:26:50.289Z,25.55
2018-08-18T05:29:18.812Z,26.73
2018-08-18T05:31:47.234Z,26.82
2018-08-18T05:34:15.901Z,26.55
2018-08-18T05:36:44.867Z,26.70
2018-08-18T05:39:13.886Z,28.15
2018-08-18T05:41:42.290Z,26.70
2018-08-18T05:44:10.710Z,26.42
2018-08-18T05:46:39.194Z,25.10
2018-08-18T05:49:13.026Z,27.55
2018-08-18T05:51:43.338Z,28.25
2018-08-18T05:54:14.176Z,28.27
2018-08-18T05:56:43.900Z,28.98
2018-08-18T05:59:13.586Z,28.65
2018-08-18T06:01:42.523Z,28.07
2018-08-18T06:04:13.022Z,27.20
2018-08-18T06:06:42.479Z,27.82
2018-08-18T06:09:14.218Z,28.92
2018-08-18T06:11:42.738Z,28.92
2018-08-18T06:14:12.051Z,29.07
2018-08-18T06:16:40.842Z,29.55
2018-08-18T06:19:09.276Z,29.10
2018-08-18T06:21:37.794Z,27.62
2018-08-18T06:24:06.216Z,28.35
2018-08-18T06:26:34.661Z,29.60
2018-08-18T06:29:03.279Z,28.25
2018-08-18T06:31:31.802Z,33.90
2018-08-18T06:34:00.306Z,34.00
2018-08-18T06:36:28.793Z,33.10
2018-08-18T06:38:57.199Z,32.75
2018-08-18T06:41:25.695Z,30.45
2018-08-18T06:43:54.068Z,32.50
2018-08-18T06:46:22.474Z,31.75
2018-08-18T06:48:50.883Z,32.73
2018-08-18T06:51:19.273Z,31.07
2018-08-18T06:53:48.608Z,29.87
2018-08-18T06:56:17.103Z,31.70
2018-08-18T06:58:45.519Z,30.68
2018-08-18T07:01:13.923Z,31.68
2018-08-18T07:03:44.790Z,30.77
2018-08-18T07:06:14.442Z,29.18
2018-08-18T07:08:48.187Z,29.77
2018-08-18T07:11:16.637Z,30.97
2018-08-18T07:13:45.714Z,30.85
2018-08-18T07:16:14.124Z,31.10
2018-08-18T07:18:42.540Z,30.17
2018-08-18T07:21:10.979Z,30.23
2018-08-18T07:23:39.415Z,30.08
2018-08-18T07:26:08.260Z,28.90
2018-08-18T07:28:36.680Z,27.58
2018-08-18T07:31:05.168Z,27.42
2018-08-18T07:33:33.570Z,28.07
2018-08-18T07:36:01.967Z,29.10
2018-08-18T07:38:30.406Z,32.25
2018-08-18T07:40:58.922Z,29.45
2018-08-18T07:43:30.122Z,27.42
2018-08-18T07:46:00.295Z,29.12
2018-08-18T07:48:28.768Z,27.75
2018-08-18T07:50:57.170Z,30.30
2018-08-18T07:53:25.616Z,30.88
2018-08-18T07:55:54.095Z,29.72
2018-08-18T07:58:23.731Z,30.02
2018-08-18T08:00:52.409Z,30.80
2018-08-18T08:03:21.388Z,28.95
2018-08-18T08:05:50.015Z,29.98
2018-08-18T08:08:18.630Z,27.15
2018-08-18T08:10:46.990Z,29.52
2018-08-18T08:13:15.967Z,26.60
2018-08-18T08:15:45.334Z,28.40
2018-08-18T08:18:15.561Z,28.65
2018-08-18T08:20:43.959Z,29.15
2018-08-18T08:23:12.478Z,27.77
2018-08-18T08:25:41.006Z,28.23
2018-08-18T08:28:09.599Z,29.80
2018-08-18T08:30:38.099Z,30.00
2018-08-18T08:33:06.679Z,26.68
2018-08-18T08:35:38.019Z,29.15
2018-08-18T08:38:06.515Z,27.55
2018-08-18T08:40:35.148Z,25.60
2018-08-18T08:43:03.732Z,26.90
2018-08-18T08:45:32.571Z,26.40
2018-08-18T08:48:01.223Z,26.82
2018-08-18T08:50:29.970Z,27.62
2018-08-18T08:52:58.493Z,27.77
2018-08-18T08:55:28.479Z,29.00
2018-08-18T08:57:56.910Z,26.82
2018-08-18T09:00:25.406Z,26.07
2018-08-18T09:02:53.997Z,25.72
2018-08-18T09:05:22.446Z,27.45
2018-08-18T09:07:50.929Z,26.40
2018-08-18T09:10:20.210Z,24.95
2018-08-18T09:12:48.729Z,25.80
2018-08-18T09:15:17.906Z,25.00
2018-08-18T09:17:46.588Z,25.15
2018-08-18T09:20:18.243Z,29.20
2018-08-18T09:22:56.995Z,29.02
2018-08-18T09:25:27.382Z,25.68
2018-08-18T09:27:57.015Z,23.40
2018-08-18T09:30:27.050Z,25.92
2018-08-18T09:32:57.953Z,24.32
2018-08-18T09:35:26.361Z,26.12
2018-08-18T09:37:58.513Z,24.60
2018-08-18T09:40:28.370Z,27.05
2018-08-18T09:42:56.992Z,27.80
2018-08-18T09:45:25.663Z,29.63
2018-08-18T09:47:54.098Z,26.55
2018-08-18T09:50:22.539Z,26.73
2018-08-18T09:52:51.656Z,24.90
2018-08-18T09:55:20.185Z,24.52
2018-08-18T09:57:48.718Z,25.32
2018-08-18T10:00:17.238Z,24.57
2018-08-18T10:02:45.776Z,22.60
2018-08-18T10:05:14.177Z,23.77
2018-08-18T10:07:42.707Z,25.50
2018-08-18T10:10:12.792Z,24.52
2018-08-18T10:12:41.820Z,23.57
2018-08-18T10:15:10.431Z,21.60
2018-08-18T10:17:38.812Z,21.73
2018-08-18T10:20:07.962Z,20.72
2018-08-18T10:22:36.569Z,18.82
2018-08-18T10:25:05.875Z,19.02
2018-08-18T10:27:39.414Z,18.32
2018-08-18T10:30:08.174Z,18.40
2018-08-18T10:32:44.620Z,17.70
2018-08-18T10:35:17.207Z,18.35
2018-08-18T10:37:45.600Z,19.00
2018-08-18T10:40:15.173Z,21.82
2018-08-18T10:42:43.616Z,23.05
2018-08-18T10:45:12.148Z,19.92
2018-08-18T10:47:40.626Z,19.12
2018-08-18T10:50:20.239Z,20.82
2018-08-18T10:52:58.222Z,20.27
2018-08-18T10:55:26.808Z,22.65
2018-08-18T10:58:02.446Z,22.45
2018-08-18T11:00:31.972Z,20.35
2018-08-18T11:03:01.858Z,19.37
2018-08-18T11:05:30.772Z,18.87
2018-08-18T11:08:15.275Z,19.73
2018-08-18T11:10:43.744Z,21.77
2018-08-18T11:13:12.139Z,20.77
2018-08-18T11:15:41.015Z,17.85
2018-08-18T11:18:09.475Z,18.62
2018-08-18T11:20:37.981Z,19.02
2018-08-18T11:23:13.487Z,18.65
2018-08-18T11:25:45.412Z,19.07
2018-08-18T11:28:14.488Z,18.48
2018-08-18T11:30:43.126Z,19.98
2018-08-18T11:33:14.565Z,18.92
2018-08-18T11:35:43.084Z,18.40
2018-08-18T11:38:14.804Z,19.75
2018-08-18T11:40:43.304Z,19.17
2018-08-18T11:43:13.546Z,18.23
2018-08-18T11:45:42.900Z,18.12
2018-08-18T11:48:23.527Z,19.37
2018-08-18T11:50:53.210Z,17.80
2018-08-18T11:53:21.730Z,17.45
2018-08-18T11:55:50.214Z,16.87
2018-08-18T11:58:20.007Z,20.57
2018-08-18T12:00:56.148Z,18.17
2018-08-18T12:03:27.252Z,16.90
2018-08-18T12:05:56.898Z,18.07
2018-08-18T12:08:26.708Z,19.10
2018-08-18T12:10:56.744Z,18.00
2018-08-18T12:13:31.100Z,16.20
2018-08-18T12:16:18.249Z,17.05
2018-08-18T12:18:47.499Z,17.05
2018-08-18T12:21:16.498Z,17.62
2018-08-18T12:23:47.200Z,17.52
2018-08-18T12:26:22.359Z,17.48
2018-08-18T12:28:52.342Z,16.20
2018-08-18T12:31:21.995Z,18.42
2018-08-18T12:33:50.475Z,18.42
2018-08-18T12:36:19.153Z,17.65
2018-08-18T12:38:50.895Z,18.15
2018-08-18T12:41:19.393Z,17.87
2018-08-18T12:43:49.544Z,16.45
2018-08-18T12:46:19.299Z,19.62
2018-08-18T12:48:49.199Z,17.45
2018-08-18T12:51:18.515Z,17.95
2018-08-18T12:53:49.964Z,17.95
2018-08-18T12:56:20.270Z,17.92
2018-08-18T12:58:48.718Z,16.70
2018-08-18T13:01:33.869Z,17.25
2018-08-18T13:04:02.363Z,16.73
2018-08-18T13:06:35.014Z,18.48
2018-08-18T13:09:03.566Z,16.27
2018-08-18T13:11:31.951Z,15.65
2018-08-18T13:14:05.080Z,17.35
2018-08-18T13:16:34.548Z,18.87
2018-08-18T13:19:03.072Z,16.85
2018-08-18T13:21:31.563Z,19.40
2018-08-18T13:24:00.565Z,16.87
2018-08-18T13:26:29.522Z,17.87
2018-08-18T13:28:57.902Z,17.95
2018-08-18T13:31:44.608Z,17.27
2018-08-18T13:34:15.598Z,17.92
2018-08-18T13:36:45.043Z,18.25
2018-08-18T13:39:14.972Z,18.20
2018-08-18T13:41:44.366Z,18.40
2018-08-18T13:44:17.076Z,18.82
2018-08-18T13:46:50.375Z,18.92
2018-08-18T13:49:22.916Z,18.73
2018-08-18T13:51:51.553Z,19.07
2018-08-18T13:54:20.031Z,17.10
2018-08-18T13:56:49.035Z,17.35
2018-08-18T13:59:32.998Z,17.15
2018-08-18T14:02:01.520Z,18.87
2018-08-18T14:04:30.034Z,19.17
2018-08-18T14:06:58.479Z,19.32
2018-08-18T14:09:26.902Z,20.40
2018-08-18T14:12:02.310Z,19.92
2018-08-18T14:14:30.739Z,17.45
2018-08-18T14:16:59.191Z,17.92
2018-08-18T14:19:27.644Z,17.50
2018-08-18T14:22:01.451Z,18.98
2018-08-18T14:24:34.407Z,16.85
2018-08-18T14:27:04.221Z,16.55
2018-08-18T14:29:33.647Z,16.35
2018-08-18T14:32:02.664Z,16.70
2018-08-18T14:34:31.160Z,17.40
2018-08-18T14:37:04.640Z,15.45
2018-08-18T14:39:38.604Z,16.52
2018-08-18T14:42:07.754Z,18.55
2018-08-18T14:44:36.712Z,17.95
2018-08-18T14:47:05.445Z,19.77
2018-08-18T14:49:33.892Z,18.25
2018-08-18T14:52:02.638Z,20.02
2018-08-18T14:54:31.977Z,18.27
2018-08-18T14:57:01.981Z,18.23
2018-08-18T14:59:32.826Z,18.42
2018-08-18T15:02:02.753Z,17.45
2018-08-18T15:04:31.350Z,17.37
2018-08-18T15:06:59.859Z,18.70
2018-08-18T15:09:42.407Z,19.10
2018-08-18T15:12:10.944Z,17.90
2018-08-18T15:14:39.469Z,17.55
2018-08-18T15:17:07.924Z,18.25
2018-08-18T15:19:36.448Z,18.20
2018-08-18T15:22:10.449Z,18.12
2018-08-18T15:24:39.227Z,18.45
2018-08-18T15:27:07.923Z,18.17
2018-08-18T15:29:36.346Z,19.25
2018-08-18T15:32:04.855Z,18.45
2018-08-18T15:34:33.354Z,18.42
2018-08-18T15:37:01.814Z,18.60
2018-08-18T15:39:30.416Z,18.07
2018-08-18T15:42:00.032Z,20.00
2018-08-18T15:44:28.529Z,18.92
2018-08-18T15:46:57.331Z,20.37
2018-08-18T15:49:25.919Z,19.12
2018-08-18T15:51:54.672Z,18.00
2018-08-18T15:54:23.967Z,17.90
2018-08-18T15:56:52.457Z,19.05
2018-08-18T15:59:20.855Z,19.12
2018-08-18T16:01:49.321Z,18.60
2018-08-18T16:04:17.759Z,18.80
2018-08-18T16:06:46.234Z,20.95
2018-08-18T16:09:14.689Z,18.82
2018-08-18T16:11:43.116Z,20.05
2018-08-18T16:14:12.522Z,18.50
2018-08-18T16:16:55.631Z,19.25
2018-08-18T16:19:24.461Z,19.20
2018-08-18T16:21:52.895Z,20.00
2018-08-18T16:24:31.731Z,19.95
2018-08-18T16:27:01.536Z,20.40
2018-08-18T16:29:29.943Z,21.15
2018-08-18T16:32:13.214Z,18.98
2018-08-18T16:34:42.699Z,17.60
2018-08-18T16:37:11.156Z,18.95
2018-08-18T16:39:39.834Z,20.17
2018-08-18T16:42:08.339Z,22.67
2018-08-18T16:44:36.785Z,20.32
2018-08-18T16:47:06.439Z,19.40
2018-08-18T16:49:34.890Z,19.77
2018-08-18T16:52:03.373Z,18.52
2018-08-18T16:54:32.804Z,19.35
2018-08-18T16:57:01.317Z,18.05
2018-08-18T16:59:30.367Z,20.08
2018-08-18T17:01:58.903Z,18.60
2018-08-18T17:04:34.480Z,17.98
2018-08-18T17:07:04.832Z,19.77
2018-08-18T17:09:36.920Z,19.65
2018-08-18T17:12:18.062Z,18.17
2018-08-18T17:14:46.544Z,19.55
2018-08-18T17:17:14.965Z,18.10
2018-08-18T17:19:45.458Z,18.10
2018-08-18T17:22:14.745Z,18.50
2018-08-18T17:24:43.193Z,18.98
2018-08-18T17:27:11.637Z,18.90
2018-08-18T17:29:41.471Z,19.82
2018-08-18T17:32:10.464Z,21.05
2018-08-18T17:34:38.940Z,19.12
2018-08-18T17:37:07.874Z,18.65
2018-08-18T17:39:36.589Z,19.55
2018-08-18T17:42:05.166Z,18.10
2018-08-18T17:44:33.694Z,18.57
2018-08-18T17:47:05.846Z,17.55
2018-08-18T17:49:41.382Z,17.80
2018-08-18T17:52:10.030Z,17.37
2018-08-18T17:54:38.818Z,17.87
2018-08-18T17:57:08.144Z,17.50
2018-08-18T17:59:37.258Z,19.52
2018-08-18T18:02:10.975Z,17.73
2018-08-18T18:04:39.495Z,19.52
2018-08-18T18:07:09.041Z,17.05
2018-08-18T18:09:37.501Z,17.87
2018-08-18T18:12:30.044Z,17.12
2018-08-18T18:14:58.596Z,17.52
2018-08-18T18:17:27.288Z,18.52
2018-08-18T18:19:58.025Z,18.30
2018-08-18T18:22:34.708Z,18.07
2018-08-18T18:25:03.197Z,17.50
2018-08-18T18:27:31.643Z,20.10
2018-08-18T18:30:00.141Z,18.62
2018-08-18T18:32:28.543Z,19.55
2018-08-18T18:34:57.120Z,17.20
2018-08-18T18:37:25.587Z,19.67
2018-08-18T18:39:59.127Z,19.05
2018-08-18T18:42:27.830Z,17.20
2018-08-18T18:44:57.078Z,18.98
2018-08-18T18:47:25.638Z,18.20
2018-08-18T18:49:54.082Z,19.10
2018-08-18T18:52:22.702Z,18.50
2018-08-18T18:54:51.157Z,19.12
2018-08-18T18:57:19.651Z,19.98
2018-08-18T18:59:53.138Z,19.25
2018-08-18T19:02:26.716Z,19.87
2018-08-18T19:04:55.188Z,18.75
2018-08-18T19:07:23.684Z,18.73
2018-08-18T19:09:57.385Z,19.70
2018-08-18T19:12:25.865Z,19.15
2018-08-18T19:14:54.270Z,18.75
2018-08-18T19:17:22.721Z,20.75
2018-08-18T19:19:56.514Z,20.95
2018-08-18T19:22:25.006Z,20.55
2018-08-18T19:24:53.499Z,21.02
2018-08-18T19:27:21.960Z,21.12
2018-08-18T19:29:50.440Z,18.60
2018-08-18T19:32:18.996Z,19.85
2018-08-18T19:34:47.481Z,18.90
2018-08-18T19:37:15.879Z,20.17
2018-08-18T19:39:44.378Z,20.75
2018-08-18T19:42:19.194Z,19.57
2018-08-18T19:44:49.866Z,19.57
2018-08-18T19:47:50.941Z,19.35
2018-08-18T19:50:19.450Z,20.88
2018-08-18T19:52:48.687Z,20.77
2018-08-18T19:55:17.207Z,20.77
2018-08-18T19:57:45.665Z,19.87
2018-08-18T20:00:19.425Z,20.88
2018-08-18T20:02:52.786Z,19.70
2018-08-18T20:05:22.475Z,20.25
2018-08-18T20:07:51.015Z,21.77
2018-08-18T20:10:19.250Z,19.23
2018-08-18T20:12:47.738Z,21.70
2018-08-18T20:15:16.716Z,20.82
2018-08-18T20:17:45.454Z,20.37
2018-08-18T20:20:17.903Z,20.40
2018-08-18T20:22:46.379Z,20.23
2018-08-18T20:25:14.855Z,20.85
2018-08-18T20:27:43.314Z,21.35
2018-08-18T20:30:12.405Z,21.20
2018-08-18T20:32:40.902Z,21.80
2018-08-18T20:35:09.661Z,19.62
2018-08-18T20:37:38.266Z,20.45
2018-08-18T20:40:07.754Z,19.98
2018-08-18T20:42:43.299Z,21.57
2018-08-18T20:45:12.609Z,19.77
2018-08-18T20:47:42.304Z,21.05
2018-08-18T20:50:11.357Z,20.62
2018-08-18T20:52:40.268Z,21.12
2018-08-18T20:55:09.425Z,20.45
2018-08-18T20:57:37.918Z,21.57
2018-08-18T21:00:09.239Z,20.50
2018-08-18T21:02:37.790Z,21.50
2018-08-18T21:05:08.807Z,21.60
2018-08-18T21:07:37.290Z,21.93
2018-08-18T21:10:13.296Z,22.40
2018-08-18T21:12:47.838Z,22.00
2018-08-18T21:15:16.895Z,20.75
2018-08-18T21:17:45.550Z,21.87
2018-08-18T21:20:16.784Z,21.27
2018-08-18T21:22:45.174Z,22.05
2018-08-18T21:25:14.403Z,20.60
2018-08-18T21:27:42.949Z,21.55
2018-08-18T21:30:14.544Z,21.93
2018-08-18T21:32:43.119Z,22.58
2018-08-18T21:35:11.602Z,21.97
2018-08-18T21:37:40.095Z,21.40
2018-08-18T21:40:10.015Z,22.13
2018-08-18T21:42:38.442Z,20.80
2018-08-18T21:45:09.678Z,21.97
2018-08-18T21:47:38.158Z,21.68
2018-08-18T21:50:06.928Z,21.45
2018-08-18T21:52:35.416Z,20.80
2018-08-18T21:55:04.011Z,21.40
2018-08-18T21:57:42.371Z,22.77
2018-08-18T22:00:10.874Z,21.12
2018-08-18T22:02:42.645Z,20.32
2018-08-18T22:05:13.715Z,21.97
2018-08-18T22:07:47.341Z,21.00
2018-08-18T22:10:15.814Z,22.85
2018-08-18T22:12:44.294Z,21.97
2018-08-18T22:15:27.289Z,24.30
2018-08-18T22:17:55.772Z,23.18
2018-08-18T22:20:24.341Z,22.30
2018-08-18T22:22:52.933Z,21.30
2018-08-18T22:25:21.288Z,23.30
2018-08-18T22:27:53.502Z,23.05
2018-08-18T22:30:25.897Z,21.93
2018-08-18T22:32:54.435Z,24.92
2018-08-18T22:35:22.910Z,22.62
2018-08-18T22:37:51.438Z,22.48
2018-08-18T22:40:19.889Z,22.95
2018-08-18T22:42:48.318Z,23.65
2018-08-18T22:45:26.510Z,22.85
2018-08-18T22:47:55.016Z,22.45
2018-08-18T22:50:23.514Z,24.05
2018-08-18T22:52:53.131Z,22.40
2018-08-18T22:55:21.563Z,23.95
2018-08-18T22:57:58.181Z,21.82
2018-08-18T23:00:26.622Z,24.52
2018-08-18T23:02:55.091Z,24.10
2018-08-18T23:05:23.507Z,22.30
2018-08-18T23:07:54.902Z,23.62
2018-08-18T23:10:25.909Z,23.18
2018-08-18T23:12:54.334Z,23.77
2018-08-18T23:15:22.762Z,23.92
2018-08-18T23:17:51.227Z,22.70
2018-08-18T23:20:19.819Z,23.50
2018-08-18T23:23:01.039Z,22.58
2018-08-18T23:25:30.794Z,23.38
2018-08-18T23:27:59.294Z,22.37
2018-08-18T23:30:44.375Z,23.02
2018-08-18T23:33:12.755Z,23.12
2018-08-18T23:35:41.178Z,24.23
2018-08-18T23:38:09.622Z,23.35
2018-08-18T23:40:38.070Z,22.55
2018-08-18T23:43:06.667Z,23.27
2018-08-18T23:45:40.588Z,22.87
2018-08-18T23:48:11.389Z,23.70
2018-08-18T23:50:41.122Z,24.47
2018-08-18T23:53:12.762Z,24.12
2018-08-18T23:55:47.277Z,25.32
2018-08-18T23:58:16.382Z,24.25
